Time;durP1;ratioP1;P1;durP2;ratioP2;P2;SDS_P1;SDS_P2;PMS_P1;PMS_P2;Temp;Humidity;BMP_temperature;BMP_pressure;BME280_temperature;BME280_humidity;BME280_pressure;Samples;Min_cycle;Max_cycle;Signal;HPM_P1;HPM_P2
2022/01/22 02:42:27;;;;;;;15.00;4.90;;;;;;;-4.09;93.54;98995.80;4460217;78;21007;-86
2022/01/22 02:48:44;;;;;;;;;;;;;;;-4.16;93.43;99010.81;4412600;79;21992;-86
2022/01/22 02:54:53;;;;;;;16.57;6.70;;;;;;;-4.15;93.68;99013.73;4430253;77;20140;-85
2022/01/22 03:01:16;;;;;;;15.93;6.57;;;;;;;-4.13;93.70;99012.92;4361324;80;20988;-86
2022/01/22 03:07:40;;;;;;;19.43;7.40;;;;;;;-4.11;94.01;99008.11;4211628;83;21098;-86
2022/01/22 03:14:57;;;;;;;17.90;7.00;;;;;;;-4.08;94.08;99009.41;4228727;83;21075;-86
2022/01/22 03:27:38;;;;;;;15.27;6.20;;;;;;;-4.14;94.41;99007.33;4302561;79;21022;-86
2022/01/22 03:47:10;;;;;;;17.93;7.77;;;;;;;-4.15;94.62;99019.08;4421067;79;21071;-85
2022/01/22 04:00:15;;;;;;;18.23;8.30;;;;;;;-4.00;94.51;99018.98;4429609;79;21701;-86
2022/01/22 04:13:08;;;;;;;19.27;9.27;;;;;;;-4.11;94.44;99016.13;4438275;78;22017;-86
2022/01/22 04:26:26;;;;;;;22.40;10.40;;;;;;;-4.39;93.95;99023.55;4411045;79;21376;-86
2022/01/22 04:32:21;;;;;;;27.93;13.30;;;;;;;-4.51;93.57;99028.97;4413804;79;21119;-86
2022/01/22 04:38:22;;;;;;;27.33;11.57;;;;;;;-4.66;93.68;99031.70;4432539;79;21103;-86
2022/01/22 04:44:49;;;;;;;31.70;14.57;;;;;;;-4.89;93.76;99041.18;4407004;78;21572;-86
2022/01/22 05:04:26;;;;;;;26.03;13.13;;;;;;;-5.18;93.73;99074.89;4411560;79;21051;-85
2022/01/22 05:10:29;;;;;;;27.87;13.47;;;;;;;-5.26;93.32;99082.92;4423558;79;21037;-86
2022/01/22 05:23:46;;;;;;;39.57;17.10;;;;;;;-5.11;94.00;99127.48;4413741;79;21635;-86
2022/01/22 05:43:39;;;;;;;61.57;26.50;;;;;;;-4.56;95.28;99139.33;4316105;80;21124;-86
2022/01/22 05:49:42;;;;;;;54.50;26.60;;;;;;;-4.63;95.04;99127.31;4322844;80;21097;-86
2022/01/22 05:59:36;;;;;;;51.40;24.40;;;;;;;-4.68;95.27;99142.05;4311186;80;21534;-86
2022/01/22 06:09:08;;;;;;;31.27;16.00;;;;;;;-4.62;95.15;99163.13;4299611;81;21106;-86
2022/01/22 06:15:30;;;;;;;37.00;15.00;;;;;;;-4.60;95.18;99170.87;4308329;81;21942;-86
2022/01/22 06:22:16;;;;;;;30.40;13.20;;;;;;;-4.67;95.04;99179.17;4222155;81;21133;-86
2022/01/22 06:35:18;;;;;;;21.10;12.47;;;;;;;-4.75;95.14;99206.95;4350090;80;21067;-86
2022/01/22 06:41:47;;;;;;;22.33;12.10;;;;;;;-4.69;95.42;99215.22;4370567;79;21131;-86
2022/01/22 06:48:21;;;;;;;21.23;11.67;;;;;;;-4.68;95.44;99212.28;4408695;79;21685;-86
2022/01/22 06:54:48;;;;;;;22.30;10.80;;;;;;;-4.65;95.56;99218.97;4405814;79;21156;-85
2022/01/22 07:01:03;;;;;;;22.07;11.63;;;;;;;-4.58;95.79;99223.48;4428703;79;21067;-86
2022/01/22 07:07:31;;;;;;;22.87;11.13;;;;;;;-4.52;95.64;99238.42;4372431;79;21031;-86
2022/01/22 07:13:50;;;;;;;22.03;11.03;;;;;;;-4.40;95.99;99234.38;4417984;79;21024;-86
2022/01/22 07:20:14;;;;;;;31.50;14.17;;;;;;;-4.23;96.06;99239.41;4436556;79;21043;-87
2022/01/22 07:26:15;;;;;;;28.20;13.00;;;;;;;-4.12;96.11;99236.41;4425275;79;21141;-86
2022/01/22 07:39:20;;;;;;;32.03;14.83;;;;;;;-3.89;96.03;99243.81;4274249;81;21036;-86
2022/01/22 07:52:23;;;;;;;33.43;15.70;;;;;;;-3.65;96.02;99263.47;4281417;80;21036;-86
2022/01/22 07:58:26;;;;;;;33.17;16.20;;;;;;;-3.53;95.81;99267.97;4415501;79;21059;-87
2022/01/22 08:11:23;;;;;;;32.87;15.20;;;;;;;-3.32;95.82;99284.70;4412675;79;21075;-88
2022/01/22 08:17:25;;;;;;;31.47;14.13;;;;;;;-3.15;95.79;99305.73;4400764;79;21082;-88
2022/01/22 08:23:42;;;;;;;29.23;14.47;;;;;;;-3.06;95.70;99304.86;4413073;79;21094;-87
2022/01/22 08:29:46;;;;;;;32.70;16.07;;;;;;;-2.92;95.92;99325.92;4415395;77;21007;-87
2022/01/22 08:36:03;;;;;;;34.73;17.57;;;;;;;-2.83;95.68;99332.27;4452346;78;21063;-88
2022/01/22 08:42:19;;;;;;;32.77;16.90;;;;;;;-2.72;95.63;99339.69;4426348;79;21004;-87
2022/01/22 08:48:22;;;;;;;31.17;14.90;;;;;;;-2.59;95.73;99343.88;4427299;78;21046;-88
2022/01/22 08:54:40;;;;;;;32.40;15.80;;;;;;;-2.49;95.38;99348.36;4414015;79;21029;-87
2022/01/22 09:00:42;;;;;;;32.63;16.60;;;;;;;-2.42;95.20;99375.63;4420358;79;21054;-88
2022/01/22 09:06:47;;;;;;;38.17;18.40;;;;;;;-2.36;95.07;99369.95;4408265;79;21067;-89
2022/01/22 09:13:12;;;;;;;37.57;18.00;;;;;;;-2.26;95.06;99365.03;4336011;80;21139;-87
2022/01/22 09:19:16;;;;;;;33.27;17.23;;;;;;;-2.11;94.91;99371.05;4346223;78;20993;-87
2022/01/22 09:25:18;;;;;;;34.00;17.07;;;;;;;-2.03;94.98;99347.64;4409590;78;21685;-88
2022/01/22 09:31:19;;;;;;;36.03;17.97;;;;;;;-1.94;94.78;99362.02;4400587;78;20972;-88
2022/01/22 09:37:21;;;;;;;31.40;17.20;;;;;;;-1.86;94.47;99369.98;4392558;78;21024;-88
2022/01/22 09:43:24;;;;;;;35.03;18.30;;;;;;;-1.80;94.12;99378.23;4410386;78;21054;-87
2022/01/22 09:49:37;;;;;;;36.60;17.35;;;;;;;-1.80;94.28;99372.86;4374784;78;21079;-89
2022/01/22 09:55:38;;;;;;;35.55;19.65;;;;;;;-1.66;94.36;99367.09;4417036;78;21029;-88
2022/01/22 10:01:41;;;;;;;38.03;18.07;;;;;;;-1.57;94.26;99371.52;4422549;78;21040;-88
2022/01/22 10:07:51;;;;;;;36.60;16.75;;;;;;;-1.49;93.94;99388.91;4412279;78;21467;-88
2022/01/22 10:13:59;;;;;;;35.65;17.15;;;;;;;-1.49;93.60;99396.96;4368710;79;21726;-88
2022/01/22 10:20:24;;;;;;;37.47;17.83;;;;;;;-1.63;93.54;99407.57;4424140;78;21055;-89
2022/01/22 10:26:25;;;;;;;33.73;17.25;;;;;;;-1.71;93.34;99412.78;4422057;79;21114;-88
2022/01/22 10:39:26;;;;;;;36.95;18.45;;;;;;;-1.83;93.64;99412.34;4254621;81;21082;-89
2022/01/22 10:45:31;;;;;;;42.37;20.63;;;;;;;-1.88;93.33;99415.11;4329902;78;21079;-89
2022/01/22 10:51:58;;;;;;;41.73;19.90;;;;;;;-1.88;93.67;99421.81;4423033;78;21045;-88
2022/01/22 10:58:13;;;;;;;39.23;19.02;;;;;;;-1.74;93.80;99426.20;4400853;79;21015;-89
2022/01/22 11:04:24;;;;;;;41.42;19.67;;;;;;;-1.66;93.69;99418.88;4416924;79;21118;-89
2022/01/22 11:10:26;;;;;;;35.08;15.90;;;;;;;-1.51;93.71;99425.16;4416555;79;21579;-88
2022/01/22 11:16:32;;;;;;;33.75;15.13;;;;;;;-1.51;93.46;99438.05;4437055;79;21105;-89
2022/01/22 11:22:34;;;;;;;23.15;10.55;;;;;;;-1.52;93.44;99435.13;4403661;79;21038;-88
2022/01/22 11:29:01;;;;;;;56.27;20.23;;;;;;;-1.47;93.15;99445.78;4407939;79;22225;-89
2022/01/22 11:35:07;;;;;;;32.17;13.48;;;;;;;-1.40;93.18;99447.59;4400241;78;21007;-87
2022/01/22 11:41:19;;;;;;;;;;;;;;;-1.30;92.50;99456.09;4423461;78;21040;-89
2022/01/22 11:47:22;;;;;;;20.20;8.30;;;;;;;-1.28;92.24;99468.13;4420555;79;20122;-89
2022/01/22 11:54:09;;;;;;;28.12;12.23;;;;;;;-1.18;92.25;99487.36;4405780;79;21032;-90
2022/01/22 12:07:43;;;;;;;;;;;;;;;-1.22;91.92;99495.75;4336335;80;21141;-89
2022/01/22 12:27:07;;;;;;;25.30;10.15;;;;;;;-1.54;91.53;99535.28;4281572;80;21046;-88
2022/01/22 12:34:02;;;;;;;22.27;8.15;;;;;;;-1.53;91.62;99531.50;4334919;80;21575;-90
2022/01/22 12:40:06;;;;;;;19.73;8.80;;;;;;;-1.35;91.76;99540.73;4328579;79;21069;-90
2022/01/22 12:46:25;;;;;;;22.77;9.48;;;;;;;-1.28;91.39;99554.09;4308521;80;21015;-89
2022/01/22 12:52:28;;;;;;;16.23;8.48;;;;;;;-1.26;91.21;99555.14;4339982;80;22063;-90
2022/01/22 12:58:50;;;;;;;23.07;9.48;;;;;;;-1.39;90.74;99547.77;4334663;80;22095;-88
2022/01/22 13:04:59;;;;;;;19.32;9.10;;;;;;;-1.37;91.01;99579.97;4319524;80;21088;-90
2022/01/22 13:11:43;;;;;;;;;;;;;;;-1.45;91.08;99585.13;4307505;79;21083;-89
2022/01/22 13:17:39;;;;;;;19.37;8.70;;;;;;;-1.53;90.86;99597.84;4312351;79;20141;-89
2022/01/22 13:23:41;;;;;;;24.80;11.45;;;;;;;-1.58;90.82;99608.62;4322645;80;21008;-88
2022/01/22 13:29:54;;;;;;;27.87;11.60;;;;;;;-1.63;90.82;99609.47;4345008;79;21086;-89
2022/01/22 13:36:31;;;;;;;27.90;10.85;;;;;;;-1.66;90.75;99620.77;4325968;79;21024;-89
2022/01/22 13:49:11;;;;;;;23.92;10.95;;;;;;;-1.67;90.86;99654.86;4328234;80;22026;-89
2022/01/22 13:55:16;;;;;;;28.87;11.00;;;;;;;-1.66;90.62;99666.41;4318777;80;21035;-89
2022/01/22 14:14:19;;;;;;;34.05;16.00;;;;;;;-1.70;90.45;99675.55;4306075;80;21085;-88
2022/01/22 14:20:47;;;;;;;28.67;13.48;;;;;;;-1.77;90.65;99685.00;4341820;79;21035;-89
2022/01/22 14:26:52;;;;;;;30.37;13.85;;;;;;;-1.81;90.91;99696.81;4324231;80;21099;-89
2022/01/22 14:33:21;;;;;;;32.10;11.53;;;;;;;-1.86;90.98;99710.26;4325227;80;21060;-89
2022/01/22 14:46:15;;;;;;;29.73;12.07;;;;;;;-1.92;91.16;99735.52;4322733;80;21085;-89
2022/01/22 14:52:36;;;;;;;33.17;13.03;;;;;;;-1.97;91.31;99749.48;4320367;80;21020;-89
2022/01/22 14:58:38;;;;;;;32.55;12.20;;;;;;;-1.99;91.48;99750.31;4311900;81;21077;-89
2022/01/22 15:04:39;;;;;;;34.37;13.87;;;;;;;-2.06;91.26;99760.52;4322090;80;21098;-90
2022/01/22 15:10:41;;;;;;;31.77;12.47;;;;;;;-2.07;91.43;99769.11;4323373;80;21057;-89
2022/01/22 15:17:13;;;;;;;35.47;15.33;;;;;;;-2.07;91.29;99777.16;4315697;80;21064;-89
2022/01/22 15:22:58;;;;;;;37.50;16.80;;;;;;;-2.08;91.27;99798.36;4324838;80;21123;-89
2022/01/22 15:29:00;;;;;;;40.03;17.20;;;;;;;-2.09;91.17;99806.69;4332071;80;21103;-89
2022/01/22 15:35:04;;;;;;;46.73;17.60;;;;;;;-2.10;91.02;99821.19;4327430;80;21071;-90
2022/01/22 15:41:15;;;;;;;35.97;16.30;;;;;;;-2.11;91.12;99827.08;4323374;80;21030;-90
2022/01/22 15:47:16;;;;;;;39.53;15.67;;;;;;;-2.11;91.11;99832.97;4331601;80;21047;-89
2022/01/22 15:53:18;;;;;;;39.50;14.37;;;;;;;-2.12;91.07;99842.92;4325077;80;21063;-88
2022/01/22 15:59:33;;;;;;;29.23;12.87;;;;;;;-2.14;91.17;99860.34;4339496;80;21131;-89
2022/01/22 16:05:47;;;;;;;43.40;15.03;;;;;;;-2.17;91.31;99866.25;4314781;80;21027;-88
2022/01/22 16:11:49;;;;;;;36.87;14.53;;;;;;;-2.20;91.44;99876.18;4333281;80;21448;-89
2022/01/22 16:17:50;;;;;;;39.67;15.93;;;;;;;-2.24;91.52;99891.22;4313939;80;21051;-88
2022/01/22 16:24:03;;;;;;;38.73;15.40;;;;;;;-2.25;91.55;99898.98;4327816;80;21063;-89
2022/01/22 16:30:07;;;;;;;45.03;17.47;;;;;;;-2.26;91.61;99905.42;4333285;80;21591;-89
2022/01/22 16:36:27;;;;;;;35.60;15.53;;;;;;;-2.28;91.62;99920.45;4321150;80;21067;-89
2022/01/22 16:42:45;;;;;;;39.30;16.63;;;;;;;-2.29;91.59;99930.92;4310048;80;21071;-89
2022/01/22 16:55:39;;;;;;;38.20;15.83;;;;;;;-2.27;91.56;99938.70;4322438;80;21016;-89
2022/01/22 17:01:58;;;;;;;40.40;17.13;;;;;;;-2.27;91.63;99942.72;4139529;83;21127;-89
2022/01/22 17:08:33;;;;;;;35.83;16.00;;;;;;;-2.26;91.60;99953.70;4331161;80;21047;-90
2022/01/22 17:14:44;;;;;;;35.43;16.13;;;;;;;-2.26;91.49;99965.77;4315183;80;21559;-89
2022/01/22 17:20:47;;;;;;;34.90;16.23;;;;;;;-2.35;91.07;99958.00;4325411;80;21056;-89
2022/01/22 17:27:11;;;;;;;38.37;16.20;;;;;;;-2.35;91.07;99958.00;4299724;80;21095;-89
2022/01/22 17:33:25;;;;;;;48.63;18.93;;;;;;;-2.26;91.36;99980.52;4284512;81;21145;-89
2022/01/22 17:39:28;;;;;;;41.43;18.77;;;;;;;-2.29;91.53;99995.28;4296170;80;21064;-90
2022/01/22 17:46:12;;;;;;;45.00;20.57;;;;;;;-2.29;91.59;99994.47;4200669;82;21749;-88
2022/01/22 17:52:14;;;;;;;53.23;20.80;;;;;;;-2.29;91.68;100006.54;4160247;83;21105;-90
2022/01/22 17:58:16;;;;;;;52.77;19.90;;;;;;;-2.31;91.50;100011.36;4319269;80;21032;-89
2022/01/22 18:10:51;;;;;;;45.03;21.63;;;;;;;-2.31;91.67;100018.06;4310470;80;21075;-89
2022/01/22 18:17:04;;;;;;;52.07;21.50;;;;;;;-2.36;91.74;100017.52;4325770;80;21024;-89
2022/01/22 18:29:51;;;;;;;40.00;17.20;;;;;;;-2.35;91.79;100018.34;4322637;80;21179;-89
2022/01/22 18:42:39;;;;;;;31.33;14.27;;;;;;;-2.36;91.72;100028.77;4320206;80;21099;-89
2022/01/22 18:48:50;;;;;;;37.63;15.60;;;;;;;-2.38;91.84;100028.25;4310040;79;21062;-90
2022/01/22 18:54:51;;;;;;;41.10;16.33;;;;;;;-2.40;91.72;100026.37;4315564;80;21121;-90
2022/01/22 19:01:03;;;;;;;37.67;17.50;;;;;;;-2.41;91.77;100024.77;4311314;80;21064;-89
2022/01/22 19:07:05;;;;;;;45.67;16.03;;;;;;;-2.42;91.77;100021.27;4335602;80;20997;-90
2022/01/22 19:13:07;;;;;;;39.43;16.87;;;;;;;-2.41;91.69;100017.50;4347906;80;21082;-90
2022/01/22 19:26:16;;;;;;;47.47;17.20;;;;;;;-2.41;91.55;100018.06;4327822;80;22157;-89
2022/01/22 19:32:30;;;;;;;49.17;18.83;;;;;;;-2.41;91.48;100025.55;4305449;81;21052;-88
2022/01/22 19:45:04;;;;;;;42.00;18.33;;;;;;;-2.43;91.46;100025.03;4311409;80;21062;-89
2022/01/22 20:04:46;;;;;;;54.90;20.80;;;;;;;-2.45;91.46;100038.41;4321143;80;20994;-88
2022/01/22 20:11:24;;;;;;;40.27;17.63;;;;;;;-2.45;91.45;100041.91;4309674;81;21089;-88
2022/01/22 20:23:57;;;;;;;35.73;16.07;;;;;;;-2.48;91.34;100042.44;4242297;82;20201;-89
2022/01/22 20:29:58;;;;;;;45.40;16.77;;;;;;;-2.48;91.29;100041.10;4108418;82;10000444;-89
2022/01/22 20:36:20;;;;;;;37.07;16.10;;;;;;;-2.47;91.35;100037.86;4224952;82;21399;-88
2022/01/22 20:42:28;;;;;;;39.67;18.00;;;;;;;-2.48;91.24;100046.47;4337384;80;21770;-89
2022/01/22 20:48:41;;;;;;;48.23;18.73;;;;;;;-2.46;91.23;100048.88;4345691;80;21114;-89
2022/01/22 20:54:42;;;;;;;49.57;18.63;;;;;;;-2.47;91.32;100044.56;4310861;81;22007;-89
2022/01/22 21:00:44;;;;;;;43.17;19.83;;;;;;;-2.47;91.21;100037.86;4337043;80;21563;-88
2022/01/22 21:06:47;;;;;;;52.30;18.67;;;;;;;-2.47;91.27;100040.02;4321395;81;21558;-88
2022/01/22 21:12:49;;;;;;;43.30;17.77;;;;;;;-2.46;91.32;100038.16;4310799;80;21027;-91
2022/01/22 21:18:59;;;;;;;49.20;20.47;;;;;;;-2.47;91.15;100042.70;4332292;80;21406;-89
2022/01/22 21:25:09;;;;;;;50.73;21.57;;;;;;;-2.49;91.16;100041.37;4321432;80;21032;-88
2022/01/22 21:31:21;;;;;;;54.33;22.37;;;;;;;-2.51;91.22;100040.82;4198778;81;9999724;-88
2022/01/22 21:43:28;;;;;;;56.83;20.77;;;;;;;-2.55;91.19;100038.41;4349952;80;21107;-89
2022/01/22 21:49:30;;;;;;;47.17;20.07;;;;;;;-2.55;91.25;100031.70;4334954;80;21031;-89
2022/01/22 21:55:31;;;;;;;49.57;21.03;;;;;;;-2.57;91.10;100031.16;4242403;82;21571;-89
2022/01/22 22:08:09;;;;;;;51.73;19.33;;;;;;;-2.63;91.09;100033.56;4313151;80;21039;-90
2022/01/22 22:14:17;;;;;;;52.03;20.80;;;;;;;-2.65;90.99;100039.19;4324208;81;20996;-88
2022/01/22 22:20:26;;;;;;;57.63;20.77;;;;;;;-2.68;91.01;100028.17;4328506;81;21515;-89
2022/01/22 22:26:28;;;;;;;44.73;18.17;;;;;;;-2.67;90.99;100030.59;4316975;81;21634;-88
2022/01/22 22:32:31;;;;;;;47.17;18.77;;;;;;;-2.68;90.90;100033.53;4314940;81;21586;-88
2022/01/22 22:38:53;;;;;;;48.40;18.65;;;;;;;-2.70;90.83;100042.36;4336671;80;21539;-89
2022/01/22 22:44:55;;;;;;;48.23;16.83;;;;;;;-2.72;90.78;100045.31;4315270;79;21141;-89
2022/01/22 22:50:56;;;;;;;44.77;19.60;;;;;;;-2.72;90.82;100043.16;4338024;80;22231;-90
2022/01/22 22:56:57;;;;;;;43.93;17.00;;;;;;;-2.75;90.87;100033.78;4342424;80;20998;-89
2022/01/22 23:03:01;;;;;;;45.07;18.10;;;;;;;-2.78;90.86;100038.84;4348305;80;20994;-89
2022/01/22 23:09:10;;;;;;;40.33;18.33;;;;;;;-2.80;90.81;100045.81;4339259;80;21096;-88
2022/01/22 23:15:36;;;;;;;45.07;17.33;;;;;;;-2.79;90.69;100041.27;4325247;80;21020;-88
2022/01/22 23:21:50;;;;;;;44.27;18.03;;;;;;;-2.83;90.78;100039.64;4324257;80;21087;-89
2022/01/22 23:28:43;;;;;;;44.20;16.37;;;;;;;-2.85;90.64;100032.39;4342117;80;21020;-89
2022/01/22 23:34:48;;;;;;;45.53;18.13;;;;;;;-2.86;90.67;100029.45;4324154;80;21050;-88
2022/01/22 23:59:27;;;;;;;41.13;18.33;;;;;;;-2.88;90.80;100047.66;4341327;80;21061;-89
